createdAt,value
2018-08-09T00:00:49.100Z,83.73
2018-08-09T00:03:18.309Z,82.92
2018-08-09T00:05:47.593Z,82.41
2018-08-09T00:08:16.761Z,83.23
2018-08-09T00:10:45.996Z,84.02
2018-08-09T00:13:15.134Z,84.76
2018-08-09T00:15:44.313Z,84.06
2018-08-09T00:18:13.484Z,83.80
2018-08-09T00:20:42.652Z,83.50
2018-08-09T00:23:11.880Z,83.55
2018-08-09T00:25:41.134Z,84.36
2018-08-09T00:28:10.350Z,84.82
2018-08-09T00:30:39.606Z,84.00
2018-08-09T00:33:08.797Z,83.62
2018-08-09T00:35:38.015Z,84.09
2018-08-09T00:38:07.182Z,84.02
2018-08-09T00:40:36.350Z,84.18
2018-08-09T00:43:05.588Z,85.42
2018-08-09T00:45:34.762Z,85.11
2018-08-09T00:48:04.000Z,85.47
2018-08-09T00:50:33.263Z,86.06
2018-08-09T00:53:02.444Z,85.07
2018-08-09T00:55:31.606Z,84.95
2018-08-09T00:58:00.846Z,85.04
2018-08-09T01:00:30.001Z,84.97
2018-08-09T01:02:59.219Z,85.30
2018-08-09T01:05:28.395Z,84.83
2018-08-09T01:07:57.569Z,85.08
2018-08-09T01:10:26.754Z,84.64
2018-08-09T01:12:55.903Z,84.47
2018-08-09T01:15:25.081Z,84.96
2018-08-09T01:17:54.349Z,85.55
2018-08-09T01:20:23.546Z,85.39
2018-08-09T01:22:52.732Z,86.08
2018-08-09T01:25:22.046Z,85.05
2018-08-09T01:27:51.245Z,84.55
2018-08-09T01:30:20.444Z,84.44
2018-08-09T01:32:49.700Z,84.94
2018-08-09T01:35:18.839Z,85.19
2018-08-09T01:37:48.023Z,86.25
2018-08-09T01:40:17.198Z,86.30
2018-08-09T01:43:03.343Z,86.51
2018-08-09T01:45:32.550Z,88.05
2018-08-09T01:48:01.820Z,88.54
2018-08-09T01:50:30.991Z,89.80
2018-08-09T01:53:00.174Z,89.36
2018-08-09T01:55:29.358Z,89.59
2018-08-09T01:57:58.602Z,89.90
2018-08-09T02:00:27.793Z,89.83
2018-08-09T02:02:56.970Z,90.45
2018-08-09T02:05:26.161Z,90.22
2018-08-09T02:07:55.372Z,90.60
2018-08-09T02:10:24.562Z,89.66
2018-08-09T02:12:53.757Z,89.46
2018-08-09T02:15:22.955Z,90.22
2018-08-09T02:17:52.134Z,89.60
2018-08-09T02:20:21.326Z,90.16
2018-08-09T02:22:50.503Z,89.91
2018-08-09T02:25:19.702Z,90.14
2018-08-09T02:27:48.904Z,90.80
2018-08-09T02:30:18.070Z,90.96
2018-08-09T02:32:47.268Z,90.91
2018-08-09T02:35:16.446Z,90.70
2018-08-09T02:37:45.609Z,91.51
2018-08-09T02:40:14.836Z,90.90
2018-08-09T02:42:44.105Z,90.81
2018-08-09T02:45:13.315Z,91.74
2018-08-09T02:47:42.631Z,92.46
2018-08-09T02:50:11.850Z,93.06
2018-08-09T02:52:41.030Z,93.80
2018-08-09T02:55:10.307Z,94.25
2018-08-09T02:57:39.514Z,95.19
2018-08-09T03:00:08.726Z,95.70
2018-08-09T03:02:38.003Z,96.42
2018-08-09T03:05:07.178Z,96.33
2018-08-09T03:07:36.445Z,96.35
2018-08-09T03:10:06.129Z,96.21
2018-08-09T03:12:35.358Z,97.12
2018-08-09T03:15:04.787Z,97.03
2018-08-09T03:17:33.979Z,97.57
2018-08-09T03:20:03.174Z,98.36
2018-08-09T03:22:32.378Z,98.67
2018-08-09T03:25:01.542Z,99.00
2018-08-09T03:27:30.718Z,99.25
2018-08-09T03:30:00.093Z,99.07
2018-08-09T03:32:29.253Z,99.18
2018-08-09T03:34:58.510Z,100.00
2018-08-09T03:37:27.735Z,100.00
2018-08-09T03:39:56.946Z,99.77
2018-08-09T03:42:26.139Z,99.30
2018-08-09T03:44:55.310Z,98.61
2018-08-09T03:47:24.519Z,99.39
2018-08-09T03:49:53.777Z,99.51
2018-08-09T03:52:23.004Z,99.42
2018-08-09T03:54:52.232Z,99.35
2018-08-09T03:57:21.428Z,100.00
2018-08-09T03:59:50.640Z,100.00
2018-08-09T04:02:19.898Z,100.00
2018-08-09T04:04:49.074Z,100.00
2018-08-09T04:07:18.409Z,100.00
2018-08-09T04:09:47.629Z,100.00
2018-08-09T04:12:17.107Z,100.00
2018-08-09T04:14:46.283Z,100.00
2018-08-09T04:17:19.117Z,100.00
2018-08-09T04:19:49.122Z,99.91
2018-08-09T04:22:18.776Z,99.24
2018-08-09T04:24:48.378Z,99.08
2018-08-09T04:27:17.805Z,98.61
2018-08-09T04:29:47.046Z,98.15
2018-08-09T04:32:16.357Z,97.81
2018-08-09T04:34:45.560Z,96.98
2018-08-09T04:37:14.731Z,96.39
2018-08-09T04:39:43.897Z,96.35
2018-08-09T04:42:15.998Z,95.79
2018-08-09T04:44:45.171Z,95.72
2018-08-09T04:47:14.362Z,94.93
2018-08-09T04:49:43.539Z,94.83
2018-08-09T04:52:12.751Z,94.22
2018-08-09T04:54:41.952Z,93.93
2018-08-09T04:57:11.122Z,93.61
2018-08-09T04:59:40.330Z,92.14
2018-08-09T05:02:09.499Z,92.50
2018-08-09T05:04:39.767Z,92.47
2018-08-09T05:07:08.967Z,91.81
2018-08-09T05:09:38.214Z,92.00
2018-08-09T05:12:07.426Z,91.94
2018-08-09T05:14:36.616Z,92.84
2018-08-09T05:17:05.812Z,92.21
2018-08-09T05:19:35.065Z,91.99
2018-08-09T05:22:04.246Z,92.21
2018-08-09T05:24:33.502Z,92.20
2018-08-09T05:27:02.686Z,91.50
2018-08-09T05:29:31.967Z,91.86
2018-08-09T05:32:01.139Z,90.85
2018-08-09T05:34:30.399Z,90.93
2018-08-09T05:36:59.642Z,89.92
2018-08-09T05:39:28.911Z,89.80
2018-08-09T05:41:58.103Z,89.55
2018-08-09T05:44:27.458Z,88.07
2018-08-09T05:46:56.660Z,87.26
2018-08-09T05:49:25.834Z,86.41
2018-08-09T05:51:55.054Z,86.17
2018-08-09T05:54:24.391Z,87.07
2018-08-09T05:56:53.563Z,86.50
2018-08-09T05:59:22.796Z,86.78
2018-08-09T06:01:52.000Z,86.43
2018-08-09T06:04:21.230Z,86.65
2018-08-09T06:06:50.455Z,86.33
2018-08-09T06:09:19.697Z,86.94
2018-08-09T06:11:48.951Z,86.59
2018-08-09T06:14:18.202Z,85.49
2018-08-09T06:16:47.477Z,85.05
2018-08-09T06:19:16.748Z,83.83
2018-08-09T06:21:45.940Z,81.48
2018-08-09T06:24:15.199Z,78.59
2018-08-09T06:26:44.338Z,76.72
2018-08-09T06:29:13.542Z,74.92
2018-08-09T06:31:42.743Z,75.24
2018-08-09T06:34:11.966Z,75.29
2018-08-09T06:36:41.158Z,75.25
2018-08-09T06:39:10.432Z,75.86
2018-08-09T06:41:40.130Z,76.75
2018-08-09T06:44:09.577Z,75.09
2018-08-09T06:46:38.825Z,73.94
2018-08-09T06:49:08.527Z,72.82
2018-08-09T06:51:44.287Z,74.00
2018-08-09T06:54:13.487Z,73.43
2018-08-09T06:56:42.698Z,72.59
2018-08-09T06:59:11.922Z,72.84
2018-08-09T07:01:41.089Z,73.58
2018-08-09T07:04:10.332Z,73.35
2018-08-09T07:06:39.542Z,72.54
2018-08-09T07:09:10.306Z,71.09
2018-08-09T07:11:39.525Z,71.01
2018-08-09T07:14:08.698Z,69.63
2018-08-09T07:16:37.907Z,70.37
2018-08-09T07:19:07.213Z,68.99
2018-08-09T07:21:36.465Z,66.46
2018-08-09T07:24:05.662Z,66.70
2018-08-09T07:26:34.962Z,64.94
2018-08-09T07:29:04.162Z,64.51
2018-08-09T07:31:33.566Z,62.55
2018-08-09T07:34:02.830Z,63.06
2018-08-09T07:36:32.217Z,61.70
2018-08-09T07:39:01.396Z,62.64
2018-08-09T07:41:30.626Z,60.87
2018-08-09T07:43:59.798Z,62.00
2018-08-09T07:46:29.003Z,61.77
2018-08-09T07:48:58.332Z,60.92
2018-08-09T07:51:27.558Z,60.84
2018-08-09T07:53:56.739Z,62.20
2018-08-09T07:56:25.978Z,61.77
2018-08-09T07:58:55.157Z,59.14
2018-08-09T08:01:24.425Z,59.49
2018-08-09T08:03:53.673Z,58.69
2018-08-09T08:06:22.928Z,59.60
2018-08-09T08:08:52.083Z,59.01
2018-08-09T08:11:21.413Z,58.41
2018-08-09T08:13:50.634Z,58.49
2018-08-09T08:16:19.843Z,57.47
2018-08-09T08:18:49.037Z,54.69
2018-08-09T08:21:18.263Z,56.37
2018-08-09T08:23:47.447Z,55.34
2018-08-09T08:26:16.683Z,55.49
2018-08-09T08:28:46.022Z,54.23
2018-08-09T08:31:15.326Z,53.04
2018-08-09T08:33:44.533Z,51.37
2018-08-09T08:36:13.771Z,52.29
2018-08-09T08:38:42.983Z,51.16
2018-08-09T08:41:12.191Z,50.36
2018-08-09T08:43:41.379Z,50.14
2018-08-09T08:46:10.551Z,51.37
2018-08-09T08:48:39.897Z,49.15
2018-08-09T08:51:09.074Z,48.78
2018-08-09T08:53:38.303Z,50.84
2018-08-09T08:56:07.544Z,49.34
2018-08-09T08:58:36.797Z,48.24
2018-08-09T09:01:06.113Z,49.55
2018-08-09T09:03:35.365Z,49.41
2018-08-09T09:06:04.576Z,48.34
2018-08-09T09:08:33.800Z,46.83
2018-08-09T09:11:02.971Z,46.77
2018-08-09T09:13:32.182Z,46.81
2018-08-09T09:16:01.423Z,45.58
2018-08-09T09:18:30.611Z,45.15
2018-08-09T09:20:59.897Z,44.66
2018-08-09T09:23:29.112Z,45.90
2018-08-09T09:25:58.291Z,45.22
2018-08-09T09:28:27.502Z,45.98
2018-08-09T09:30:56.731Z,44.66
2018-08-09T09:33:25.931Z,44.46
2018-08-09T09:35:55.210Z,44.23
2018-08-09T09:38:24.383Z,44.85
2018-08-09T09:40:53.537Z,44.68
2018-08-09T09:43:22.763Z,44.05
2018-08-09T09:45:51.985Z,44.59
2018-08-09T09:48:21.252Z,43.62
2018-08-09T09:50:50.445Z,43.58
2018-08-09T09:53:19.726Z,42.73
2018-08-09T09:55:48.918Z,41.65
2018-08-09T09:58:18.134Z,43.52
2018-08-09T10:00:52.783Z,43.23
2018-08-09T10:03:22.021Z,43.01
2018-08-09T10:05:51.196Z,43.78
2018-08-09T10:08:20.411Z,42.13
2018-08-09T10:10:49.701Z,43.25
2018-08-09T10:13:18.895Z,43.16
2018-08-09T10:15:48.283Z,42.75
2018-08-09T10:18:17.473Z,41.63
2018-08-09T10:20:46.768Z,42.88
2018-08-09T10:23:15.979Z,41.43
2018-08-09T10:25:45.222Z,41.21
2018-08-09T10:28:14.381Z,40.57
2018-08-09T10:30:43.633Z,41.00
2018-08-09T10:33:12.862Z,41.43
2018-08-09T10:35:42.105Z,39.25
2018-08-09T10:38:11.344Z,40.59
2018-08-09T10:40:47.997Z,40.58
2018-08-09T10:43:17.185Z,40.43
2018-08-09T10:45:53.053Z,39.47
2018-08-09T10:48:22.235Z,40.38
2018-08-09T10:50:51.490Z,42.44
2018-08-09T10:53:20.701Z,41.15
2018-08-09T10:55:50.101Z,39.84
2018-08-09T10:58:19.317Z,39.87
2018-08-09T11:00:48.565Z,39.01
2018-08-09T11:03:17.830Z,39.20
2018-08-09T11:05:47.071Z,39.38
2018-08-09T11:08:16.247Z,39.44
2018-08-09T11:10:45.469Z,37.86
2018-08-09T11:13:14.690Z,37.85
2018-08-09T11:15:43.974Z,38.33
2018-08-09T11:18:13.286Z,37.41
2018-08-09T11:20:43.234Z,38.28
2018-08-09T11:23:12.454Z,38.17
2018-08-09T11:25:41.667Z,37.50
2018-08-09T11:28:10.950Z,36.59
2018-08-09T11:30:40.206Z,36.67
2018-08-09T11:33:09.445Z,36.35
2018-08-09T11:35:38.677Z,35.80
2018-08-09T11:38:07.898Z,36.95
2018-08-09T11:40:37.142Z,36.00
2018-08-09T11:43:13.010Z,35.73
2018-08-09T11:45:42.038Z,35.12
2018-08-09T11:48:11.264Z,34.95
2018-08-09T11:50:40.450Z,34.94
2018-08-09T11:53:09.645Z,34.44
2018-08-09T11:55:38.843Z,35.01
2018-08-09T11:58:08.066Z,34.51
2018-08-09T12:00:37.283Z,35.70
2018-08-09T12:03:06.509Z,35.41
2018-08-09T12:05:35.748Z,36.28
2018-08-09T12:08:04.964Z,34.61
2018-08-09T12:10:34.209Z,34.31
2018-08-09T12:13:03.449Z,33.44
2018-08-09T12:15:32.711Z,32.34
2018-08-09T12:18:01.902Z,32.49
2018-08-09T12:20:31.130Z,32.36
2018-08-09T12:23:00.323Z,31.70
2018-08-09T12:25:29.522Z,31.16
2018-08-09T12:27:58.987Z,31.32
2018-08-09T12:30:28.276Z,32.42
2018-08-09T12:32:57.552Z,32.17
2018-08-09T12:35:26.846Z,32.38
2018-08-09T12:37:56.110Z,32.14
2018-08-09T12:40:25.384Z,31.76
2018-08-09T12:42:54.685Z,31.33
2018-08-09T12:45:23.964Z,31.98
2018-08-09T12:47:53.118Z,31.35
2018-08-09T12:50:22.293Z,30.75
2018-08-09T12:52:51.518Z,30.30
2018-08-09T12:55:20.697Z,30.30
2018-08-09T12:57:49.942Z,30.57
2018-08-09T13:00:19.181Z,30.21
2018-08-09T13:02:48.478Z,30.14
2018-08-09T13:05:17.697Z,30.68
2018-08-09T13:07:46.960Z,30.98
2018-08-09T13:10:16.162Z,31.15
2018-08-09T13:12:45.434Z,32.18
2018-08-09T13:15:14.721Z,30.84
2018-08-09T13:17:45.265Z,30.15
2018-08-09T13:20:17.895Z,30.88
2018-08-09T13:22:47.845Z,36.43
2018-08-09T13:25:17.158Z,44.46
2018-08-09T13:27:46.510Z,47.69
2018-08-09T13:30:15.780Z,49.60
2018-08-09T13:32:45.513Z,52.59
2018-08-09T13:35:14.735Z,54.58
2018-08-09T13:37:43.982Z,55.76
2018-08-09T13:40:13.263Z,56.98
2018-08-09T13:42:42.458Z,57.93
2018-08-09T13:45:14.663Z,60.23
2018-08-09T13:47:43.886Z,65.36
2018-08-09T13:50:13.826Z,72.37
2018-08-09T13:52:43.102Z,79.77
2018-08-09T13:55:14.189Z,85.30
2018-08-09T13:57:43.471Z,86.64
2018-08-09T14:00:13.882Z,88.33
2018-08-09T14:02:44.739Z,90.26
2018-08-09T14:05:13.930Z,90.18
2018-08-09T14:07:44.217Z,91.13
2018-08-09T14:10:13.976Z,91.53
2018-08-09T14:12:43.422Z,89.46
2018-08-09T14:15:14.682Z,87.75
2018-08-09T14:17:43.928Z,87.86
2018-08-09T14:20:16.146Z,86.44
2018-08-09T14:22:45.442Z,87.86
2018-08-09T14:25:14.790Z,87.51
2018-08-09T14:27:43.990Z,87.47
2018-08-09T14:30:15.859Z,86.06
2018-08-09T14:32:45.603Z,85.24
2018-08-09T14:35:16.260Z,84.10
2018-08-09T14:37:46.502Z,80.95
2018-08-09T14:40:16.377Z,81.13
2018-08-09T14:42:45.643Z,81.28
2018-08-09T14:45:16.435Z,80.63
2018-08-09T14:47:45.711Z,80.34
2018-08-09T14:50:14.820Z,78.35
2018-08-09T14:52:44.092Z,79.77
2018-08-09T14:55:13.950Z,80.04
2018-08-09T14:57:43.345Z,78.95
2018-08-09T15:00:18.323Z,79.11
2018-08-09T15:02:47.980Z,80.45
2018-08-09T15:05:17.771Z,80.06
2018-08-09T15:07:46.981Z,80.82
2018-08-09T15:10:17.519Z,81.15
2018-08-09T15:12:46.794Z,84.64
2018-08-09T15:15:16.037Z,80.48
2018-08-09T15:17:45.361Z,80.61
2018-08-09T15:20:14.887Z,83.51
2018-08-09T15:22:44.274Z,82.71
2018-08-09T15:25:13.745Z,82.06
2018-08-09T15:27:42.947Z,85.62
2018-08-09T15:30:16.610Z,84.09
2018-08-09T15:32:46.020Z,84.75
2018-08-09T15:35:15.372Z,86.07
2018-08-09T15:37:44.947Z,84.23
2018-08-09T15:40:15.047Z,84.65
2018-08-09T15:42:44.292Z,84.17
2018-08-09T15:45:15.290Z,83.10
2018-08-09T15:47:44.733Z,82.25
2018-08-09T15:50:17.585Z,81.74
2018-08-09T15:52:46.875Z,81.67
2018-08-09T15:55:17.617Z,77.16
2018-08-09T15:57:46.937Z,74.92
2018-08-09T16:00:19.808Z,71.45
2018-08-09T16:02:49.078Z,71.45
2018-08-09T16:05:18.323Z,71.35
2018-08-09T16:07:47.664Z,71.17
2018-08-09T16:10:17.995Z,71.39
2018-08-09T16:12:47.845Z,68.67
2018-08-09T16:15:18.668Z,72.60
2018-08-09T16:17:48.610Z,72.63
2018-08-09T16:20:18.019Z,73.76
2018-08-09T16:22:47.501Z,73.55
2018-08-09T16:25:18.690Z,75.89
2018-08-09T16:27:48.963Z,75.08
2018-08-09T16:30:21.958Z,71.98
2018-08-09T16:32:51.220Z,71.20
2018-08-09T16:35:20.667Z,72.11
2018-08-09T16:37:50.009Z,71.95
2018-08-09T16:40:23.587Z,72.99
2018-08-09T16:42:52.812Z,72.69
2018-08-09T16:45:22.834Z,74.66
2018-08-09T16:47:53.443Z,72.95
2018-08-09T16:50:24.130Z,73.83
2018-08-09T16:52:53.489Z,72.72
2018-08-09T16:55:24.100Z,72.63
2018-08-09T16:57:53.368Z,74.08
2018-08-09T17:00:24.268Z,72.72
2018-08-09T17:02:53.970Z,74.82
2018-08-09T17:05:26.181Z,75.45
2018-08-09T17:07:55.492Z,76.89
2018-08-09T17:10:25.547Z,77.47
2018-08-09T17:12:54.787Z,77.07
2018-08-09T17:15:26.922Z,77.36
2018-08-09T17:17:56.933Z,76.86
2018-08-09T17:20:29.624Z,77.56
2018-08-09T17:22:59.636Z,79.26
2018-08-09T17:25:28.884Z,81.10
2018-08-09T17:27:58.094Z,82.38
2018-08-09T17:30:28.278Z,84.33
2018-08-09T17:32:58.513Z,87.21
2018-08-09T17:35:27.780Z,87.91
2018-08-09T17:37:57.139Z,86.24
2018-08-09T17:40:31.416Z,85.18
2018-08-09T17:43:01.516Z,83.73
2018-08-09T17:45:32.826Z,82.69
2018-08-09T17:48:02.605Z,82.38
2018-08-09T17:50:31.818Z,84.61
2018-08-09T17:53:02.697Z,86.88
2018-08-09T17:55:32.678Z,86.75
2018-08-09T17:58:01.907Z,88.38
2018-08-09T18:00:32.519Z,84.93
2018-08-09T18:03:01.846Z,81.54
2018-08-09T18:05:31.099Z,82.44
2018-08-09T18:08:00.483Z,81.04
2018-08-09T18:10:32.365Z,79.57
2018-08-09T18:13:01.640Z,80.42
2018-08-09T18:15:31.554Z,81.11
2018-08-09T18:18:01.740Z,81.10
2018-08-09T18:20:33.539Z,80.25
2018-08-09T18:23:34.778Z,79.91
2018-08-09T18:26:04.059Z,78.90
2018-08-09T18:28:33.365Z,79.78
2018-08-09T18:31:02.908Z,79.98
2018-08-09T18:33:32.128Z,79.23
2018-08-09T18:36:01.379Z,79.81
2018-08-09T18:38:30.768Z,78.67
2018-08-09T18:41:00.019Z,78.63
2018-08-09T18:43:29.260Z,76.59
2018-08-09T18:45:59.365Z,77.47
2018-08-09T18:48:28.644Z,78.03
2018-08-09T18:50:57.926Z,77.48
2018-08-09T18:53:27.142Z,77.56
2018-08-09T18:55:56.367Z,76.93
2018-08-09T18:58:25.648Z,76.59
2018-08-09T19:00:54.853Z,76.32
2018-08-09T19:03:24.134Z,76.57
2018-08-09T19:05:53.340Z,75.60
2018-08-09T19:08:22.625Z,75.85
2018-08-09T19:10:51.874Z,76.72
2018-08-09T19:13:21.062Z,76.61
2018-08-09T19:15:50.281Z,76.66
2018-08-09T19:18:19.472Z,77.91
2018-08-09T19:20:48.678Z,77.94
2018-08-09T19:23:18.090Z,77.41
2018-08-09T19:25:47.293Z,78.43
2018-08-09T19:28:16.516Z,78.55
2018-08-09T19:30:45.827Z,80.93
2018-08-09T19:33:15.104Z,80.47
2018-08-09T19:35:44.338Z,80.55
2018-08-09T19:38:13.591Z,80.71
2018-08-09T19:40:42.852Z,81.07
2018-08-09T19:43:12.057Z,80.92
2018-08-09T19:45:41.321Z,82.00
2018-08-09T19:48:10.583Z,83.36
2018-08-09T19:50:39.776Z,83.45
2018-08-09T19:53:09.090Z,83.33
2018-08-09T19:55:38.291Z,83.20
2018-08-09T19:58:07.534Z,83.47
2018-08-09T20:00:36.836Z,83.56
2018-08-09T20:03:06.158Z,82.98
2018-08-09T20:05:35.417Z,82.93
2018-08-09T20:08:04.749Z,83.63
2018-08-09T20:10:35.058Z,82.82
2018-08-09T20:13:04.259Z,83.68
2018-08-09T20:15:33.554Z,83.93
2018-08-09T20:18:02.788Z,82.70
2018-08-09T20:20:32.015Z,83.74
2018-08-09T20:23:01.283Z,83.68
2018-08-09T20:25:30.511Z,84.29
2018-08-09T20:27:59.809Z,85.12
2018-08-09T20:30:29.016Z,85.52
2018-08-09T20:32:58.227Z,84.73
2018-08-09T20:35:27.458Z,84.98
2018-08-09T20:37:56.659Z,85.84
2018-08-09T20:40:25.920Z,84.65
2018-08-09T20:42:58.156Z,85.32
2018-08-09T20:45:27.383Z,85.90
2018-08-09T20:47:56.666Z,86.34
2018-08-09T20:50:27.437Z,83.57
2018-08-09T20:52:56.644Z,83.61
2018-08-09T20:55:25.965Z,83.33
2018-08-09T20:57:56.022Z,83.06
2018-08-09T21:00:30.780Z,81.65
2018-08-09T21:03:00.839Z,80.40
2018-08-09T21:05:37.903Z,79.78
2018-08-09T21:08:07.143Z,80.49
2018-08-09T21:10:36.187Z,81.21
2018-08-09T21:13:05.389Z,80.11
2018-08-09T21:15:34.700Z,79.67
2018-08-09T21:18:03.798Z,80.37
2018-08-09T21:20:33.053Z,78.25
2018-08-09T21:23:02.261Z,78.85
2018-08-09T21:25:31.454Z,79.63
2018-08-09T21:28:00.650Z,79.42
2018-08-09T21:30:29.855Z,80.55
2018-08-09T21:32:59.074Z,81.82
2018-08-09T21:35:28.299Z,82.36
2018-08-09T21:37:57.520Z,81.07
2018-08-09T21:40:26.703Z,81.44
2018-08-09T21:42:55.902Z,80.96
2018-08-09T21:45:25.201Z,81.56
2018-08-09T21:47:54.387Z,82.37
2018-08-09T21:50:23.626Z,78.54
2018-08-09T21:52:52.915Z,77.12
2018-08-09T21:55:22.110Z,78.98
2018-08-09T21:57:51.347Z,78.08
2018-08-09T22:00:51.733Z,77.26
2018-08-09T22:03:23.185Z,77.22
2018-08-09T22:05:57.744Z,77.00
2018-08-09T22:08:32.130Z,77.83
2018-08-09T22:11:06.511Z,77.78
2018-08-09T22:13:40.915Z,77.82
2018-08-09T22:16:15.250Z,77.80
2018-08-09T22:18:49.571Z,78.41
2018-08-09T22:21:23.990Z,76.90
2018-08-09T22:23:53.170Z,77.78
2018-08-09T22:26:22.414Z,77.40
2018-08-09T22:28:51.703Z,78.19
2018-08-09T22:31:20.870Z,77.96
2018-08-09T22:33:50.211Z,79.09
2018-08-09T22:36:19.496Z,79.69
2018-08-09T22:38:48.698Z,81.04
2018-08-09T22:41:18.186Z,81.38
2018-08-09T22:43:47.797Z,80.17
2018-08-09T22:46:17.037Z,81.82
2018-08-09T22:48:46.835Z,80.66
2018-08-09T22:51:16.107Z,81.11
2018-08-09T22:53:45.292Z,79.92
2018-08-09T22:56:14.507Z,79.51
2018-08-09T22:58:43.732Z,79.22
2018-08-09T23:01:12.983Z,79.17
2018-08-09T23:03:42.700Z,79.15
2018-08-09T23:06:12.344Z,79.11
2018-08-09T23:08:42.028Z,79.36
2018-08-09T23:11:11.624Z,74.64
2018-08-09T23:19:39.968Z,74.12
2018-08-09T23:22:09.300Z,74.66
2018-08-09T23:24:38.704Z,74.77
2018-08-09T23:27:08.097Z,75.24
2018-08-09T23:29:37.404Z,75.14
2018-08-09T23:32:06.749Z,75.20
2018-08-09T23:34:36.021Z,75.78
2018-08-09T23:37:05.349Z,74.91
2018-08-09T23:39:34.599Z,75.87
2018-08-09T23:42:03.998Z,75.51
2018-08-09T23:44:33.036Z,76.32
2018-08-09T23:47:02.309Z,75.58
2018-08-09T23:49:31.754Z,75.05
2018-08-09T23:52:01.155Z,75.31
2018-08-09T23:54:30.497Z,75.49
2018-08-09T23:56:59.806Z,75.99
2018-08-09T23:59:29.095Z,75.85
